createdAt,value
2016-04-14T00:00:56.220Z,0
2016-04-14T00:01:56.222Z,0
2016-04-14T00:02:56.272Z,0
2016-04-14T00:03:55.477Z,0
2016-04-14T00:04:56.293Z,0
2016-04-14T00:05:56.296Z,0
2016-04-14T00:06:56.314Z,0
2016-04-14T00:07:56.316Z,0
2016-04-14T00:08:56.302Z,0
2016-04-14T00:09:56.367Z,0
2016-04-14T00:10:56.338Z,0
2016-04-14T00:11:56.372Z,0
2016-04-14T00:12:56.375Z,0
2016-04-14T00:13:56.409Z,0
2016-04-14T00:14:56.427Z,0
2016-04-14T00:15:56.430Z,0
2016-04-14T00:16:55.713Z,0
2016-04-14T00:17:56.466Z,0
2016-04-14T00:18:56.516Z,0
2016-04-14T00:20:11.176Z,0
2016-04-14T00:20:56.521Z,0
2016-04-14T00:21:56.524Z,0
2016-04-14T00:22:56.559Z,0
2016-04-14T00:23:56.576Z,0
2016-04-14T00:24:56.595Z,0
2016-04-14T00:25:56.612Z,0
2016-04-14T00:26:56.616Z,0
2016-04-14T00:27:55.900Z,0
2016-04-14T00:28:56.667Z,0
2016-04-14T00:29:56.671Z,0
2016-04-14T00:30:56.705Z,0
2016-04-14T00:31:56.738Z,0
2016-04-14T00:32:56.726Z,0
2016-04-14T00:33:56.744Z,0
2016-04-14T00:34:56.762Z,0
2016-04-14T00:35:57.176Z,0
2016-04-14T00:36:56.805Z,0
2016-04-14T00:37:56.824Z,0
2016-04-14T00:38:56.843Z,0
2016-04-14T00:39:56.845Z,0
2016-04-14T00:40:56.113Z,0
2016-04-14T00:41:56.898Z,0
2016-04-14T00:42:56.900Z,0
2016-04-14T00:43:56.934Z,0
2016-04-14T00:44:56.937Z,0
2016-04-14T00:45:56.955Z,0
2016-04-14T00:46:56.974Z,0
2016-04-14T00:47:57.007Z,0
2016-04-14T00:48:57.026Z,0
2016-04-14T00:49:57.029Z,0
2016-04-14T00:50:57.062Z,0
2016-04-14T00:51:57.049Z,0
2016-04-14T00:52:57.099Z,0
2016-04-14T00:53:57.117Z,0
2016-04-14T00:54:57.136Z,0
2016-04-14T00:55:57.138Z,0
2016-04-14T00:56:57.156Z,0
2016-04-14T00:57:57.175Z,0
2016-04-14T00:58:57.177Z,0
2016-04-14T00:59:57.196Z,0
2016-04-14T01:00:57.230Z,0
2016-04-14T01:01:57.247Z,0
2016-04-14T01:02:57.297Z,0
2016-04-14T01:03:57.316Z,0
2016-04-14T01:04:57.302Z,0
2016-04-14T01:05:57.369Z,0
2016-04-14T01:06:57.715Z,0
2016-04-14T01:07:57.389Z,0
2016-04-14T01:08:57.407Z,0
2016-04-14T01:09:57.394Z,0
2016-04-14T01:10:57.679Z,0
2016-04-14T01:11:57.415Z,0
2016-04-14T01:12:57.434Z,0
2016-04-14T01:13:57.452Z,0
2016-04-14T01:14:57.470Z,0
2016-04-14T01:15:57.489Z,0
2016-04-14T01:16:57.335Z,0
2016-04-14T01:17:57.525Z,0
2016-04-14T01:18:57.366Z,0
2016-04-14T01:19:57.541Z,0
2016-04-14T01:20:57.559Z,0
2016-04-14T01:21:57.577Z,0
2016-04-14T01:22:57.611Z,0
2016-04-14T01:23:57.614Z,0
2016-04-14T01:24:57.632Z,0
2016-04-14T01:25:57.635Z,0
2016-04-14T01:26:57.669Z,0
2016-04-14T01:27:57.687Z,0
2016-04-14T01:28:57.768Z,0
2016-04-14T01:29:57.724Z,0
2016-04-14T01:30:57.741Z,0
2016-04-14T01:31:57.777Z,0
2016-04-14T01:32:57.826Z,0
2016-04-14T01:33:57.782Z,0
2016-04-14T01:34:57.799Z,0
2016-04-14T01:35:57.818Z,0
2016-04-14T01:36:57.852Z,0
2016-04-14T01:37:57.854Z,0
2016-04-14T01:38:57.857Z,0
2016-04-14T01:39:57.876Z,0
2016-04-14T01:40:57.925Z,0
2016-04-14T01:41:57.912Z,0
2016-04-14T01:42:57.946Z,0
2016-04-14T01:43:57.949Z,0
2016-04-14T01:44:57.967Z,0
2016-04-14T01:45:57.986Z,0
2016-04-14T01:46:57.988Z,0
2016-04-14T01:47:58.022Z,0
2016-04-14T01:48:58.353Z,0
2016-04-14T01:49:58.059Z,0
2016-04-14T01:50:58.061Z,0
2016-04-14T01:51:58.080Z,0
2016-04-14T01:52:58.098Z,0
2016-04-14T01:53:57.428Z,0
2016-04-14T01:54:58.135Z,0
2016-04-14T01:55:58.137Z,0
2016-04-14T01:56:58.172Z,0
2016-04-14T01:57:58.189Z,0
2016-04-14T01:58:58.192Z,0
2016-04-14T01:59:58.227Z,0
2016-04-14T02:00:58.229Z,0
2016-04-14T02:01:58.247Z,0
2016-04-14T02:02:58.328Z,0
2016-04-14T02:03:58.315Z,0
2016-04-14T02:04:58.318Z,0
2016-04-14T02:05:58.320Z,0
2016-04-14T02:06:58.338Z,0
2016-04-14T02:07:58.357Z,0
2016-04-14T02:08:58.407Z,0
2016-04-14T02:09:58.409Z,0
2016-04-14T02:10:58.443Z,0
2016-04-14T02:11:58.476Z,0
2016-04-14T02:12:58.495Z,0
2016-04-14T02:13:58.498Z,0
2016-04-14T02:14:58.517Z,0
2016-04-14T02:15:58.473Z,0
2016-04-14T02:16:58.523Z,0
2016-04-14T02:17:58.525Z,0
2016-04-14T02:18:58.542Z,0
2016-04-14T02:19:58.562Z,0
2016-04-14T02:20:58.580Z,0
2016-04-14T02:21:58.598Z,0
2016-04-14T02:22:58.601Z,0
2016-04-14T02:23:58.634Z,0
2016-04-14T02:24:58.637Z,0
2016-04-14T02:25:58.639Z,0
2016-04-14T02:26:58.517Z,0
2016-04-14T02:27:58.676Z,0
2016-04-14T02:28:58.711Z,0
2016-04-14T02:29:58.697Z,0
2016-04-14T02:30:58.746Z,0
2016-04-14T02:31:58.735Z,0
2016-04-14T02:32:58.768Z,0
2016-04-14T02:33:58.802Z,0
2016-04-14T02:34:58.805Z,0
2016-04-14T02:35:58.823Z,0
2016-04-14T02:36:58.826Z,0
2016-04-14T02:37:58.860Z,0
2016-04-14T02:38:58.862Z,0
2016-04-14T02:39:58.896Z,0
2016-04-14T02:40:58.884Z,0
2016-04-14T02:41:58.932Z,0
2016-04-14T02:42:58.935Z,0
2016-04-14T02:43:58.954Z,0
2016-04-14T02:44:59.284Z,0
2016-04-14T02:45:59.006Z,0
2016-04-14T02:46:59.009Z,0
2016-04-14T02:47:59.011Z,0
2016-04-14T02:48:59.030Z,0
2016-04-14T02:49:59.064Z,0
2016-04-14T02:50:59.066Z,0
2016-04-14T02:51:59.085Z,0
2016-04-14T02:52:59.103Z,0
2016-04-14T02:53:59.122Z,0
2016-04-14T02:54:59.139Z,0
2016-04-14T02:55:59.158Z,0
2016-04-14T02:56:59.161Z,0
2016-04-14T02:57:59.179Z,0
2016-04-14T02:58:59.197Z,0
2016-04-14T02:59:59.216Z,0
2016-04-14T03:00:59.234Z,0
2016-04-14T03:01:59.549Z,0
2016-04-14T03:02:59.255Z,0
2016-04-14T03:03:59.304Z,0
2016-04-14T03:04:59.292Z,0
2016-04-14T03:05:59.154Z,0
2016-04-14T03:06:59.343Z,0
2016-04-14T03:07:59.347Z,0
2016-04-14T03:08:59.365Z,0
2016-04-14T03:09:59.399Z,0
2016-04-14T03:10:59.401Z,0
2016-04-14T03:11:59.420Z,0
2016-04-14T03:12:59.422Z,0
2016-04-14T03:13:59.441Z,0
2016-04-14T03:14:59.475Z,0
2016-04-14T03:15:59.477Z,0
2016-04-14T03:16:59.496Z,0
2016-04-14T03:17:59.514Z,0
2016-04-14T03:18:59.532Z,0
2016-04-14T03:19:59.551Z,0
2016-04-14T03:20:59.584Z,0
2016-04-14T03:21:59.619Z,0
2016-04-14T03:22:59.590Z,0
2016-04-14T03:23:59.639Z,0
2016-04-14T03:24:59.627Z,0
2016-04-14T03:25:59.661Z,0
2016-04-14T03:26:59.678Z,0
2016-04-14T03:27:59.667Z,0
2016-04-14T03:28:59.684Z,0
2016-04-14T03:29:59.719Z,0
2016-04-14T03:30:59.721Z,0
2016-04-14T03:31:59.739Z,0
2016-04-14T03:32:59.758Z,0
2016-04-14T03:33:59.776Z,0
2016-04-14T03:34:59.044Z,0
2016-04-14T03:35:59.812Z,0
2016-04-14T03:36:59.815Z,0
2016-04-14T03:37:59.849Z,0
2016-04-14T03:38:59.118Z,0
2016-04-14T03:39:59.870Z,0
2016-04-14T03:40:59.904Z,0
2016-04-14T03:41:59.923Z,0
2016-04-14T03:42:59.925Z,0
2016-04-14T03:43:59.928Z,0
2016-04-14T03:44:59.946Z,0
2016-04-14T03:45:59.979Z,0
2016-04-14T03:46:59.983Z,0
2016-04-14T03:48:00.017Z,0
2016-04-14T03:49:00.019Z,0
2016-04-14T03:50:00.038Z,0
2016-04-14T03:51:00.056Z,0
2016-04-14T03:52:00.075Z,0
2016-04-14T03:53:00.077Z,0
2016-04-14T03:54:00.095Z,0
2016-04-14T03:55:00.114Z,0
2016-04-14T03:56:00.132Z,0
2016-04-14T03:57:00.150Z,0
2016-04-14T03:58:00.183Z,0
2016-04-14T03:59:00.171Z,0
2016-04-14T04:00:00.205Z,4
2016-04-14T04:01:00.224Z,4
2016-04-14T04:02:00.241Z,4
2016-04-14T04:03:00.229Z,0
2016-04-14T04:04:00.263Z,4
2016-04-14T04:05:00.280Z,4
2016-04-14T04:06:00.299Z,4
2016-04-14T04:07:00.318Z,4
2016-04-14T04:08:00.320Z,8
2016-04-14T04:09:00.371Z,8
2016-04-14T04:10:00.373Z,8
2016-04-14T04:11:00.359Z,12
2016-04-14T04:12:00.394Z,12
2016-04-14T04:13:00.396Z,12
2016-04-14T04:14:00.430Z,16
2016-04-14T04:15:00.637Z,20
2016-04-14T04:16:00.467Z,20
2016-04-14T04:17:00.501Z,24
2016-04-14T04:18:00.535Z,28
2016-04-14T04:19:01.459Z,32
2016-04-14T04:20:00.556Z,32
2016-04-14T04:21:00.574Z,40
2016-04-14T04:22:00.577Z,44
2016-04-14T04:23:00.564Z,52
2016-04-14T04:24:00.598Z,56
2016-04-14T04:25:00.600Z,60
2016-04-14T04:26:00.650Z,68
2016-04-14T04:27:00.637Z,72
2016-04-14T04:28:00.656Z,76
2016-04-14T04:29:00.658Z,84
2016-04-14T04:30:00.691Z,88
2016-04-14T04:31:00.711Z,96
2016-04-14T04:32:00.744Z,104
2016-04-14T04:33:00.747Z,116
2016-04-14T04:34:00.734Z,128
2016-04-14T04:35:00.783Z,136
2016-04-14T04:36:00.802Z,144
2016-04-14T04:37:00.789Z,156
2016-04-14T04:38:00.823Z,168
2016-04-14T04:39:00.826Z,184
2016-04-14T04:40:00.859Z,192
2016-04-14T04:41:01.018Z,204
2016-04-14T04:42:00.880Z,208
2016-04-14T04:43:00.883Z,224
2016-04-14T04:44:00.167Z,236
2016-04-14T04:45:00.920Z,248
2016-04-14T04:46:00.954Z,256
2016-04-14T04:47:00.956Z,268
2016-04-14T04:48:00.990Z,276
2016-04-14T04:49:00.993Z,288
2016-04-14T04:50:01.011Z,296
2016-04-14T04:51:01.014Z,308
2016-04-14T04:52:01.032Z,320
2016-04-14T04:53:01.067Z,336
2016-04-14T04:54:01.084Z,356
2016-04-14T04:55:01.103Z,376
2016-04-14T04:56:01.450Z,396
2016-04-14T04:57:01.124Z,416
2016-04-14T04:58:01.158Z,436
2016-04-14T04:59:01.160Z,456
2016-04-14T05:00:01.163Z,476
2016-04-14T05:01:01.182Z,508
2016-04-14T05:02:01.216Z,544
2016-04-14T05:03:01.218Z,580
2016-04-14T05:04:01.253Z,628
2016-04-14T05:05:01.255Z,680
2016-04-14T05:06:01.274Z,744
2016-04-14T05:07:01.276Z,800
2016-04-14T05:08:01.310Z,856
2016-04-14T05:09:01.327Z,900
2016-04-14T05:10:01.331Z,944
2016-04-14T05:11:01.427Z,1000
2016-04-14T05:12:01.383Z,1064
2016-04-14T05:13:01.400Z,1120
2016-04-14T05:14:01.479Z,1200
2016-04-14T05:15:01.510Z,1292
2016-04-14T05:16:01.588Z,1380
2016-04-14T05:17:01.652Z,1444
2016-04-14T05:18:01.736Z,1508
2016-04-14T05:19:01.756Z,1572
2016-04-14T05:20:01.774Z,1640
2016-04-14T05:21:01.793Z,1684
2016-04-14T05:22:01.812Z,1756
2016-04-14T05:23:01.875Z,1820
2016-04-14T05:24:01.945Z,1892
2016-04-14T05:25:01.922Z,1916
2016-04-14T05:26:02.055Z,1976
2016-04-14T05:27:01.970Z,2028
2016-04-14T05:28:02.041Z,2068
2016-04-14T05:29:02.030Z,2124
2016-04-14T05:30:02.050Z,2216
2016-04-14T05:31:02.040Z,2296
2016-04-14T05:32:02.045Z,2336
2016-04-14T05:33:02.065Z,2440
2016-04-14T05:34:02.083Z,2428
2016-04-14T05:35:02.087Z,2436
2016-04-14T05:36:02.122Z,2500
2016-04-14T05:37:02.125Z,2560
2016-04-14T05:38:02.222Z,2668
2016-04-14T05:39:02.194Z,2704
2016-04-14T05:40:02.228Z,2712
2016-04-14T05:41:02.386Z,2896
2016-04-14T05:42:02.233Z,3040
2016-04-14T05:43:02.251Z,3180
2016-04-14T05:44:02.566Z,3320
2016-04-14T05:45:02.272Z,3500
2016-04-14T05:46:02.291Z,3564
2016-04-14T05:47:02.325Z,3716
2016-04-14T05:48:02.312Z,3840
2016-04-14T05:49:05.362Z,3872
2016-04-14T05:50:02.365Z,3932
2016-04-14T05:51:02.367Z,3992
2016-04-14T05:52:02.401Z,3976
2016-04-14T05:53:02.716Z,3896
2016-04-14T05:54:02.421Z,3844
2016-04-14T05:55:02.456Z,3768
2016-04-14T05:56:02.489Z,3640
2016-04-14T05:57:02.492Z,3672
2016-04-14T05:58:02.339Z,3684
2016-04-14T05:59:02.529Z,3596
2016-04-14T06:00:02.532Z,3624
2016-04-14T06:01:02.565Z,3872
2016-04-14T06:02:02.584Z,3852
2016-04-14T06:03:02.587Z,3908
2016-04-14T06:04:02.605Z,3960
2016-04-14T06:05:02.608Z,3868
2016-04-14T06:06:02.641Z,3924
2016-04-14T06:07:02.675Z,3820
2016-04-14T06:08:01.927Z,3796
2016-04-14T06:09:02.696Z,3744
2016-04-14T06:10:02.714Z,3688
2016-04-14T06:11:02.716Z,3684
2016-04-14T06:12:02.751Z,3484
2016-04-14T06:13:02.769Z,3340
2016-04-14T06:14:02.787Z,3188
2016-04-14T06:15:02.806Z,3044
2016-04-14T06:16:02.840Z,3004
2016-04-14T06:17:02.874Z,2976
2016-04-14T06:18:02.876Z,3000
2016-04-14T06:19:02.880Z,3068
2016-04-14T06:20:02.898Z,3180
2016-04-14T06:21:02.916Z,3288
2016-04-14T06:22:02.918Z,3416
2016-04-14T06:23:02.937Z,3516
2016-04-14T06:24:02.971Z,3664
2016-04-14T06:25:02.990Z,3796
2016-04-14T06:26:03.008Z,3944
2016-04-14T06:27:03.010Z,4096
2016-04-14T06:28:03.029Z,4248
2016-04-14T06:29:03.063Z,4408
2016-04-14T06:30:03.065Z,4420
2016-04-14T06:31:03.100Z,4476
2016-04-14T06:32:03.102Z,4616
2016-04-14T06:33:03.136Z,4660
2016-04-14T06:34:03.138Z,4600
2016-04-14T06:35:03.156Z,4916
2016-04-14T06:36:03.175Z,4844
2016-04-14T06:37:03.193Z,4888
2016-04-14T06:38:03.211Z,4984
2016-04-14T06:39:03.230Z,5156
2016-04-14T06:40:03.264Z,5216
2016-04-14T06:41:03.283Z,5160
2016-04-14T06:42:03.285Z,5088
2016-04-14T06:43:03.303Z,5036
2016-04-14T06:44:03.321Z,4980
2016-04-14T06:45:03.340Z,4908
2016-04-14T06:46:03.530Z,4612
2016-04-14T06:47:03.408Z,4648
2016-04-14T06:48:03.395Z,4300
2016-04-14T06:49:03.413Z,4176
2016-04-14T06:50:03.431Z,4084
2016-04-14T06:51:03.746Z,4076
2016-04-14T06:52:03.468Z,4104
2016-04-14T06:53:03.487Z,4080
2016-04-14T06:54:03.505Z,4100
2016-04-14T06:55:03.523Z,4068
2016-04-14T06:56:03.557Z,4068
2016-04-14T06:57:03.560Z,4068
2016-04-14T06:58:03.578Z,4056
2016-04-14T06:59:03.582Z,4020
2016-04-14T07:00:03.615Z,3992
2016-04-14T07:01:03.634Z,4100
2016-04-14T07:02:03.652Z,4216
2016-04-14T07:03:03.686Z,4276
2016-04-14T07:04:03.705Z,4320
2016-04-14T07:05:03.738Z,4408
2016-04-14T07:06:03.741Z,4572
2016-04-14T07:07:03.740Z,4980
2016-04-14T07:08:03.632Z,4984
2016-04-14T07:09:03.770Z,5468
2016-04-14T07:10:03.788Z,5568
2016-04-14T07:11:03.670Z,5632
2016-04-14T07:12:03.707Z,6316
2016-04-14T07:13:03.693Z,5688
2016-04-14T07:14:03.719Z,5724
2016-04-14T07:15:03.721Z,5304
2016-04-14T07:16:03.740Z,5252
2016-04-14T07:17:04.007Z,5084
2016-04-14T07:18:04.069Z,4860
2016-04-14T07:19:03.963Z,4916
2016-04-14T07:20:03.966Z,5068
2016-04-14T07:21:04.062Z,5028
2016-04-14T07:22:04.065Z,6084
2016-04-14T07:23:04.067Z,6144
2016-04-14T07:24:04.070Z,6052
2016-04-14T07:25:04.073Z,5904
2016-04-14T07:26:04.090Z,5480
2016-04-14T07:27:04.281Z,6236
2016-04-14T07:28:04.158Z,5872
2016-04-14T07:29:04.161Z,6692
2016-04-14T07:30:04.226Z,6556
2016-04-14T07:31:04.261Z,6724
2016-04-14T07:32:04.263Z,5556
2016-04-14T07:33:04.219Z,6684
2016-04-14T07:34:04.237Z,6820
2016-04-14T07:35:04.271Z,6952
2016-04-14T07:36:04.274Z,7116
2016-04-14T07:37:04.292Z,7312
2016-04-14T07:38:04.311Z,7892
2016-04-14T07:39:04.345Z,8212
2016-04-14T07:40:04.348Z,7364
2016-04-14T07:41:04.366Z,7264
2016-04-14T07:42:04.400Z,6896
2016-04-14T07:43:04.402Z,6316
2016-04-14T07:44:04.421Z,6012
2016-04-14T07:45:04.439Z,5768
2016-04-14T07:46:04.472Z,5536
2016-04-14T07:47:04.491Z,5468
2016-04-14T07:48:04.509Z,5412
2016-04-14T07:49:04.527Z,5236
2016-04-14T07:50:04.390Z,5132
2016-04-14T07:51:04.548Z,5004
2016-04-14T07:52:04.583Z,5236
2016-04-14T07:53:04.601Z,5512
2016-04-14T07:54:04.619Z,6796
2016-04-14T07:55:04.638Z,6996
2016-04-14T07:56:04.671Z,6680
2016-04-14T07:57:04.674Z,6632
2016-04-14T07:58:04.708Z,5696
2016-04-14T07:59:04.742Z,5740
2016-04-14T08:00:03.978Z,6752
2016-04-14T08:01:04.747Z,6676
2016-04-14T08:02:04.781Z,6524
2016-04-14T08:03:04.800Z,5676
2016-04-14T08:04:04.787Z,5668
2016-04-14T08:05:04.820Z,6212
2016-04-14T08:06:04.698Z,6700
2016-04-14T08:07:04.873Z,6532
2016-04-14T08:08:04.860Z,6184
2016-04-14T08:09:04.755Z,6448
2016-04-14T08:10:04.903Z,6656
2016-04-14T08:11:04.937Z,6700
2016-04-14T08:12:04.189Z,6552
2016-04-14T08:13:04.973Z,6368
2016-04-14T08:14:04.976Z,6304
2016-04-14T08:15:05.025Z,6480
2016-04-14T08:16:05.028Z,6800
2016-04-14T08:17:05.047Z,7136
2016-04-14T08:18:05.065Z,7436
2016-04-14T08:19:05.083Z,8024
2016-04-14T08:20:05.102Z,8116
2016-04-14T08:21:05.104Z,7920
2016-04-14T08:22:05.138Z,7648
2016-04-14T08:23:05.156Z,7408
2016-04-14T08:24:05.190Z,7188
2016-04-14T08:25:05.036Z,7100
2016-04-14T08:26:05.226Z,7092
2016-04-14T08:27:05.229Z,7508
2016-04-14T08:28:05.576Z,6752
2016-04-14T08:29:05.297Z,6104
2016-04-14T08:30:05.285Z,6048
2016-04-14T08:31:05.349Z,7288
2016-04-14T08:32:05.384Z,7456
2016-04-14T08:33:05.355Z,7520
2016-04-14T08:34:05.373Z,7248
2016-04-14T08:35:05.376Z,7400
2016-04-14T08:36:05.425Z,7292
2016-04-14T08:37:05.467Z,7732
2016-04-14T08:38:05.454Z,7368
2016-04-14T08:39:05.489Z,7328
2016-04-14T08:40:05.492Z,6884
2016-04-14T08:41:05.494Z,6388
2016-04-14T08:42:05.512Z,6448
2016-04-14T08:43:05.562Z,7428
2016-04-14T08:44:05.564Z,6448
2016-04-14T08:45:05.598Z,7864
2016-04-14T08:46:05.616Z,7132
2016-04-14T08:47:05.619Z,7236
2016-04-14T08:48:05.653Z,7188
2016-04-14T08:49:05.671Z,7184
2016-04-14T08:50:05.689Z,7216
2016-04-14T08:51:05.785Z,7272
2016-04-14T08:52:05.741Z,7052
2016-04-14T08:53:05.744Z,7348
2016-04-14T08:54:05.794Z,6556
2016-04-14T08:55:05.797Z,6832
2016-04-14T08:56:05.815Z,7740
2016-04-14T08:57:05.818Z,7688
2016-04-14T08:58:05.851Z,7796
2016-04-14T08:59:05.885Z,7300
2016-04-14T09:00:05.873Z,7580
2016-04-14T09:01:05.751Z,8240
2016-04-14T09:02:05.926Z,8732
2016-04-14T09:03:05.960Z,8028
2016-04-14T09:04:06.243Z,7248
2016-04-14T09:05:05.980Z,7508
2016-04-14T09:06:06.015Z,7592
2016-04-14T09:07:06.048Z,7808
2016-04-14T09:08:06.067Z,8224
2016-04-14T09:09:06.069Z,9648
2016-04-14T09:10:06.087Z,9724
2016-04-14T09:11:06.105Z,10276
2016-04-14T09:12:06.155Z,8552
2016-04-14T09:13:06.158Z,10076
2016-04-14T09:14:06.160Z,8340
2016-04-14T09:15:06.195Z,8600
2016-04-14T09:16:06.228Z,8748
2016-04-14T09:17:06.247Z,8420
2016-04-14T09:18:06.250Z,8620
2016-04-14T09:19:06.283Z,9480
2016-04-14T09:20:06.286Z,7908
2016-04-14T09:21:06.335Z,8208
2016-04-14T09:22:06.322Z,9788
2016-04-14T09:23:06.371Z,8364
2016-04-14T09:24:06.671Z,8428
2016-04-14T09:25:06.393Z,8328
2016-04-14T09:26:06.396Z,8200
2016-04-14T09:27:06.320Z,7884
2016-04-14T09:28:06.480Z,7748
2016-04-14T09:29:06.466Z,7700
2016-04-14T09:30:06.485Z,7556
2016-04-14T09:31:06.518Z,7500
2016-04-14T09:32:06.537Z,8008
2016-04-14T09:33:06.571Z,8672
2016-04-14T09:34:06.589Z,8904
2016-04-14T09:35:06.607Z,8460
2016-04-14T09:36:06.610Z,9044
2016-04-14T09:37:06.660Z,7420
2016-04-14T09:38:06.663Z,9200
2016-04-14T09:39:06.681Z,9480
2016-04-14T09:40:06.699Z,9324
2016-04-14T09:41:06.717Z,6804
2016-04-14T09:42:06.642Z,6728
2016-04-14T09:43:06.769Z,6492
2016-04-14T09:44:06.772Z,6608
2016-04-14T09:45:06.837Z,7420
2016-04-14T09:46:06.839Z,7316
2016-04-14T09:47:06.858Z,8532
2016-04-14T09:48:06.861Z,8912
2016-04-14T09:49:06.911Z,7020
2016-04-14T09:50:06.897Z,6916
2016-04-14T09:51:06.916Z,8196
2016-04-14T09:52:06.950Z,8360
2016-04-14T09:53:06.968Z,7124
2016-04-14T09:54:06.986Z,8464
2016-04-14T09:55:07.020Z,8884
2016-04-14T09:56:07.054Z,9148
2016-04-14T09:57:07.494Z,9628
2016-04-14T09:58:07.076Z,9808
2016-04-14T09:59:07.078Z,10016
2016-04-14T10:00:07.112Z,10116
2016-04-14T10:01:07.130Z,10112
2016-04-14T10:02:07.149Z,10000
2016-04-14T10:03:07.182Z,9904
2016-04-14T10:04:07.201Z,8872
2016-04-14T10:05:07.204Z,8288
2016-04-14T10:06:07.237Z,8332
2016-04-14T10:07:07.257Z,7916
2016-04-14T10:08:07.290Z,7692
2016-04-14T10:09:06.559Z,7760
2016-04-14T10:10:07.312Z,9648
2016-04-14T10:11:07.345Z,9640
2016-04-14T10:12:07.270Z,7528
2016-04-14T10:13:07.381Z,7540
2016-04-14T10:14:07.400Z,9792
2016-04-14T10:15:07.417Z,9976
2016-04-14T10:16:07.436Z,8308
2016-04-14T10:17:07.470Z,11004
2016-04-14T10:18:07.489Z,9776
2016-04-14T10:19:07.492Z,8268
2016-04-14T10:20:07.525Z,7852
2016-04-14T10:21:07.544Z,7608
2016-04-14T10:22:07.577Z,9872
2016-04-14T10:23:07.580Z,9988
2016-04-14T10:24:07.630Z,9900
2016-04-14T10:25:07.648Z,10428
2016-04-14T10:26:07.682Z,8652
2016-04-14T10:27:07.731Z,8736
2016-04-14T10:28:07.687Z,10208
2016-04-14T10:29:07.721Z,11104
2016-04-14T10:30:07.740Z,11276
2016-04-14T10:31:07.743Z,11116
2016-04-14T10:32:07.776Z,10900
2016-04-14T10:33:07.810Z,10444
2016-04-14T10:34:08.032Z,8696
2016-04-14T10:35:07.846Z,9100
2016-04-14T10:36:07.882Z,10168
2016-04-14T10:37:07.915Z,7892
2016-04-14T10:38:07.902Z,7960
2016-04-14T10:39:07.921Z,8156
2016-04-14T10:40:07.970Z,9024
2016-04-14T10:41:07.973Z,7808
2016-04-14T10:42:08.131Z,7480
2016-04-14T10:43:08.009Z,7396
2016-04-14T10:44:08.027Z,7340
2016-04-14T10:45:08.062Z,9396
2016-04-14T10:46:08.080Z,8276
2016-04-14T10:47:08.098Z,7536
2016-04-14T10:48:08.132Z,6876
2016-04-14T10:49:08.150Z,6536
2016-04-14T10:50:08.169Z,6652
2016-04-14T10:51:08.186Z,7212
2016-04-14T10:52:08.205Z,7844
2016-04-14T10:53:08.238Z,9176
2016-04-14T10:54:08.257Z,8044
2016-04-14T10:55:08.260Z,7176
2016-04-14T10:56:08.341Z,7408
2016-04-14T10:57:08.516Z,9564
2016-04-14T10:58:08.346Z,9796
2016-04-14T10:59:08.365Z,9868
2016-04-14T11:00:08.367Z,9916
2016-04-14T11:01:08.448Z,9792
2016-04-14T11:02:08.466Z,9988
2016-04-14T11:03:08.485Z,10136
2016-04-14T11:04:08.472Z,10052
2016-04-14T11:05:08.366Z,9924
2016-04-14T11:06:08.509Z,9828
2016-04-14T11:07:08.543Z,9728
2016-04-14T11:08:08.560Z,9668
2016-04-14T11:09:08.563Z,9760
2016-04-14T11:10:08.613Z,9856
2016-04-14T11:11:08.600Z,10056
2016-04-14T11:12:08.696Z,10024
2016-04-14T11:13:08.652Z,10120
2016-04-14T11:14:08.531Z,9844
2016-04-14T11:15:08.689Z,9900
2016-04-14T11:16:08.723Z,10344
2016-04-14T11:17:08.756Z,10432
2016-04-14T11:18:08.775Z,10380
2016-04-14T11:19:08.559Z,10664
2016-04-14T11:20:08.639Z,10968
2016-04-14T11:21:08.830Z,11016
2016-04-14T11:22:08.863Z,11064
2016-04-14T11:23:08.866Z,11204
2016-04-14T11:24:08.900Z,11264
2016-04-14T11:25:08.919Z,11120
2016-04-14T11:26:08.938Z,11336
2016-04-14T11:27:08.955Z,11184
2016-04-14T11:28:08.943Z,11084
2016-04-14T11:29:09.023Z,10592
2016-04-14T11:30:09.041Z,9916
2016-04-14T11:31:09.044Z,10484
2016-04-14T11:32:09.079Z,10520
2016-04-14T11:33:09.082Z,10576
2016-04-14T11:34:09.115Z,10652
2016-04-14T11:35:09.148Z,10876
2016-04-14T11:36:09.167Z,11036
2016-04-14T11:37:09.184Z,11044
2016-04-14T11:38:09.500Z,11288
2016-04-14T11:39:09.236Z,11584
2016-04-14T11:40:09.255Z,11700
2016-04-14T11:41:09.289Z,10748
2016-04-14T11:42:09.308Z,11384
2016-04-14T11:43:09.326Z,11440
2016-04-14T11:44:09.344Z,11284
2016-04-14T11:45:09.347Z,8952
2016-04-14T11:46:09.380Z,8656
2016-04-14T11:47:09.414Z,8828
2016-04-14T11:48:09.433Z,11096
2016-04-14T11:49:09.513Z,10480
2016-04-14T11:50:09.521Z,10536
2016-04-14T11:51:09.524Z,7936
2016-04-14T11:52:09.558Z,10420
2016-04-14T11:53:09.607Z,9376
2016-04-14T11:54:09.610Z,7764
2016-04-14T11:55:09.629Z,7972
2016-04-14T11:56:09.896Z,9516
2016-04-14T11:57:09.649Z,8240
2016-04-14T11:58:09.667Z,8572
2016-04-14T11:59:09.686Z,9512
2016-04-14T12:00:09.720Z,7596
2016-04-14T12:01:09.723Z,8944
2016-04-14T12:02:09.757Z,8228
2016-04-14T12:03:09.759Z,8216
2016-04-14T12:04:09.793Z,8256
2016-04-14T12:05:09.811Z,8140
2016-04-14T12:06:09.845Z,8468
2016-04-14T12:07:09.880Z,9036
2016-04-14T12:08:09.882Z,11560
2016-04-14T12:09:09.931Z,11216
2016-04-14T12:10:09.933Z,9700
2016-04-14T12:11:09.953Z,9612
2016-04-14T12:12:09.971Z,9212
2016-04-14T12:13:09.989Z,8388
2016-04-14T12:14:10.007Z,7856
2016-04-14T12:15:10.041Z,7420
2016-04-14T12:16:10.075Z,7128
2016-04-14T12:17:10.094Z,6848
2016-04-14T12:18:10.113Z,6544
2016-04-14T12:19:10.130Z,6296
2016-04-14T12:20:10.149Z,6116
2016-04-14T12:21:10.167Z,6020
2016-04-14T12:22:10.201Z,6076
2016-04-14T12:23:10.079Z,6272
2016-04-14T12:24:10.237Z,6568
2016-04-14T12:25:10.287Z,6944
2016-04-14T12:26:10.290Z,7404
2016-04-14T12:27:10.308Z,7964
2016-04-14T12:28:10.343Z,8548
2016-04-14T12:29:10.407Z,9264
2016-04-14T12:30:10.410Z,10544
2016-04-14T12:31:10.412Z,11316
2016-04-14T12:32:10.415Z,10772
2016-04-14T12:33:10.434Z,9152
2016-04-14T12:34:10.467Z,8660
2016-04-14T12:35:10.517Z,8568
2016-04-14T12:36:10.550Z,8664
2016-04-14T12:37:10.506Z,8836
2016-04-14T12:38:10.541Z,9236
2016-04-14T12:39:10.575Z,11776
2016-04-14T12:40:10.578Z,11332
2016-04-14T12:41:10.627Z,12308
2016-04-14T12:42:10.630Z,12344
2016-04-14T12:43:10.663Z,12420
2016-04-14T12:44:10.682Z,12612
2016-04-14T12:45:10.716Z,12624
2016-04-14T12:46:10.719Z,12520
2016-04-14T12:47:10.753Z,12576
2016-04-14T12:48:10.755Z,12680
2016-04-14T12:49:10.789Z,12632
2016-04-14T12:50:10.838Z,12436
2016-04-14T12:51:10.826Z,12324
2016-04-14T12:52:10.859Z,12596
2016-04-14T12:53:10.878Z,12112
2016-04-14T12:54:10.912Z,12296
2016-04-14T12:55:10.930Z,12276
2016-04-14T12:56:10.949Z,12176
2016-04-14T12:57:10.968Z,11904
2016-04-14T12:58:10.235Z,11648
2016-04-14T12:59:11.020Z,11424
2016-04-14T13:00:11.037Z,11136
2016-04-14T13:01:11.071Z,10972
2016-04-14T13:02:11.386Z,10720
2016-04-14T13:03:11.108Z,10464
2016-04-14T13:04:11.142Z,10232
2016-04-14T13:05:11.160Z,10216
2016-04-14T13:06:11.179Z,10564
2016-04-14T13:07:11.212Z,10728
2016-04-14T13:08:11.231Z,10740
2016-04-14T13:09:11.267Z,10756
2016-04-14T13:10:11.317Z,10744
2016-04-14T13:11:11.362Z,10876
2016-04-14T13:12:11.162Z,10600
2016-04-14T13:13:11.336Z,10668
2016-04-14T13:14:11.354Z,11476
2016-04-14T13:15:11.389Z,11944
2016-04-14T13:16:11.406Z,12224
2016-04-14T13:17:11.441Z,12116
2016-04-14T13:18:11.318Z,9728
2016-04-14T13:19:11.461Z,12940
2016-04-14T13:20:10.761Z,13076
2016-04-14T13:21:11.513Z,11532
2016-04-14T13:22:11.548Z,11452
2016-04-14T13:23:11.566Z,9292
2016-04-14T13:24:11.569Z,10424
2016-04-14T13:25:11.603Z,12136
2016-04-14T13:26:11.653Z,11400
2016-04-14T13:27:11.655Z,10488
2016-04-14T13:28:11.674Z,10552
2016-04-14T13:29:11.707Z,10780
2016-04-14T13:30:11.741Z,10836
2016-04-14T13:31:11.728Z,10836
2016-04-14T13:32:11.810Z,10824
2016-04-14T13:33:12.109Z,10096
2016-04-14T13:34:11.846Z,9896
2016-04-14T13:35:11.099Z,10620
2016-04-14T13:36:11.867Z,10256
2016-04-14T13:37:11.901Z,8120
2016-04-14T13:38:11.903Z,8516
2016-04-14T13:39:11.921Z,7416
2016-04-14T13:40:11.206Z,10292
2016-04-14T13:41:11.974Z,10424
2016-04-14T13:42:12.009Z,10704
2016-04-14T13:43:12.026Z,11132